Time;durP1;ratioP1;P1;durP2;ratioP2;P2;SDS_P1;SDS_P2;PMS_P1;PMS_P2;Temp;Humidity;BMP_temperature;BMP_pressure;BME280_temperature;BME280_humidity;BME280_pressure;Samples;Min_cycle;Max_cycle;Signal;HPM_P1;HPM_P2
2023/01/23 00:00:25;;;;;;;16.90;8.95;;;;;;;;;;5031484;28;20123;-81
2023/01/23 00:02:51;;;;;;;21.70;9.35;;;;;;;;;;5043096;28;25272;-81
2023/01/23 00:05:16;;;;;;;17.75;8.63;;;;;;;;;;5021302;28;20103;-80
2023/01/23 00:07:42;;;;;;;18.48;9.38;;;;;;;;;;5050309;28;20044;-81
2023/01/23 00:10:08;;;;;;;16.15;8.85;;;;;;;;;;5030573;28;20029;-81
2023/01/23 00:12:33;;;;;;;23.35;9.50;;;;;;;;;;5042813;28;20037;-81
2023/01/23 00:14:59;;;;;;;17.30;9.52;;;;;;;;;;5016291;28;20043;-81
2023/01/23 00:17:26;;;;;;;17.05;9.02;;;;;;;;;;5032870;28;20047;-81
2023/01/23 00:19:54;;;;;;;20.20;9.43;;;;;;;;;;5042361;28;20701;-81
2023/01/23 00:22:20;;;;;;;17.80;9.45;;;;;;;;;;5036940;28;20033;-81
2023/01/23 00:24:46;;;;;;;46.15;21.17;;;;;;;;;;5036924;28;20433;-81
2023/01/23 00:27:11;;;;;;;22.80;11.23;;;;;;;;;;5042395;28;20036;-80
2023/01/23 00:29:37;;;;;;;17.55;8.90;;;;;;;;;;5033346;28;20032;-80
2023/01/23 00:32:02;;;;;;;18.05;9.40;;;;;;;;;;5015639;28;20048;-81
2023/01/23 00:34:28;;;;;;;17.77;8.80;;;;;;;;;;5033752;28;20217;-80
2023/01/23 00:36:53;;;;;;;19.17;9.00;;;;;;;;;;5018611;28;20033;-81
2023/01/23 00:39:20;;;;;;;16.85;9.65;;;;;;;;;;5031961;28;20036;-81
2023/01/23 00:41:46;;;;;;;20.20;9.90;;;;;;;;;;5034749;28;20444;-80
2023/01/23 00:44:12;;;;;;;19.05;9.32;;;;;;;;;;5033465;28;20283;-82
2023/01/23 00:46:38;;;;;;;17.42;8.68;;;;;;;;;;5026119;28;20033;-81
2023/01/23 00:49:03;;;;;;;19.17;9.55;;;;;;;;;;5016153;28;20052;-80
2023/01/23 00:51:29;;;;;;;20.75;9.30;;;;;;;;;;5022029;28;20064;-80
2023/01/23 00:53:54;;;;;;;17.50;9.20;;;;;;;;;;5015344;28;20040;-81
2023/01/23 00:56:20;;;;;;;23.92;11.75;;;;;;;;;;5034326;28;20067;-81
2023/01/23 00:58:45;;;;;;;17.35;8.65;;;;;;;;;;5032653;28;20037;-80
2023/01/23 01:01:12;;;;;;;17.55;8.68;;;;;;;;;;5035583;28;20033;-81
2023/01/23 01:03:38;;;;;;;21.27;9.53;;;;;;;;;;5050728;28;20560;-81
2023/01/23 01:06:04;;;;;;;26.40;12.02;;;;;;;;;;5035385;28;20785;-80
2023/01/23 01:08:29;;;;;;;20.95;9.63;;;;;;;;;;5047944;28;20033;-81
2023/01/23 01:10:54;;;;;;;19.67;9.50;;;;;;;;;;5048145;28;20104;-81
2023/01/23 01:13:22;;;;;;;18.48;9.32;;;;;;;;;;5042743;28;20056;-81
2023/01/23 01:15:49;;;;;;;17.77;9.13;;;;;;;;;;5040100;28;20036;-81
2023/01/23 01:18:14;;;;;;;22.20;10.65;;;;;;;;;;5048612;28;20673;-82
2023/01/23 01:20:41;;;;;;;20.77;9.48;;;;;;;;;;5018433;28;20044;-82
2023/01/23 01:23:06;;;;;;;20.90;9.40;;;;;;;;;;5031022;28;20028;-82
2023/01/23 01:25:32;;;;;;;21.80;9.60;;;;;;;;;;5020620;28;20041;-81
2023/01/23 01:27:57;;;;;;;21.08;9.43;;;;;;;;;;5041020;28;20067;-81
2023/01/23 01:30:25;;;;;;;20.02;9.23;;;;;;;;;;5032669;28;21064;-82
2023/01/23 01:32:52;;;;;;;20.20;9.82;;;;;;;;;;5027353;28;20070;-81
2023/01/23 01:35:18;;;;;;;18.55;9.07;;;;;;;;;;5028922;28;20788;-82
2023/01/23 01:37:43;;;;;;;19.42;9.95;;;;;;;;;;5035412;28;20069;-82
2023/01/23 01:40:13;;;;;;;22.52;9.50;;;;;;;;;;5028246;28;20120;-81
2023/01/23 01:42:41;;;;;;;18.83;9.35;;;;;;;;;;5039581;28;20099;-81
2023/01/23 01:45:45;;;;;;;21.17;10.02;;;;;;;;;;5035580;28;20552;-82
2023/01/23 01:48:11;;;;;;;20.27;9.05;;;;;;;;;;5052371;28;20500;-81
2023/01/23 01:50:36;;;;;;;21.00;9.15;;;;;;;;;;5028742;28;20044;-82
2023/01/23 01:53:01;;;;;;;20.27;9.40;;;;;;;;;;5027945;28;20040;-81
2023/01/23 01:55:27;;;;;;;23.17;10.20;;;;;;;;;;5018943;28;21195;-82
2023/01/23 01:57:53;;;;;;;21.80;10.18;;;;;;;;;;5023370;28;20032;-81
2023/01/23 02:00:19;;;;;;;22.83;9.55;;;;;;;;;;5023686;28;20488;-81
2023/01/23 02:02:59;;;;;;;19.97;9.87;;;;;;;;;;5024171;28;20032;-80
2023/01/23 02:05:29;;;;;;;18.20;8.45;;;;;;;;;;5044998;28;20110;-80
2023/01/23 02:08:18;;;;;;;20.55;9.63;;;;;;;;;;5034236;28;20041;-80
2023/01/23 02:10:44;;;;;;;20.27;9.32;;;;;;;;;;5045210;28;20435;-80
2023/01/23 02:13:37;;;;;;;17.98;8.98;;;;;;;;;;5050859;28;20041;-81
2023/01/23 02:16:07;;;;;;;19.73;9.48;;;;;;;;;;5028219;28;20112;-79
2023/01/23 02:18:34;;;;;;;21.25;9.45;;;;;;;;;;5039770;28;20028;-82
2023/01/23 02:21:05;;;;;;;22.30;10.48;;;;;;;;;;5033785;28;20106;-82
2023/01/23 02:24:18;;;;;;;17.70;8.77;;;;;;;;;;5035109;28;20420;-81
2023/01/23 02:26:45;;;;;;;17.80;8.93;;;;;;;;;;5027456;28;20041;-82
2023/01/23 02:29:11;;;;;;;22.42;10.13;;;;;;;;;;5026341;28;20048;-82
2023/01/23 02:31:37;;;;;;;18.15;9.25;;;;;;;;;;5018604;28;20029;-80
2023/01/23 02:34:04;;;;;;;22.45;9.77;;;;;;;;;;5044364;28;20041;-80
2023/01/23 02:36:33;;;;;;;18.88;9.50;;;;;;;;;;5048328;28;20555;-80
2023/01/23 02:39:02;;;;;;;21.48;9.95;;;;;;;;;;5044276;28;20123;-80
2023/01/23 02:41:30;;;;;;;18.77;8.95;;;;;;;;;;5032110;28;20774;-81
2023/01/23 02:43:58;;;;;;;19.75;9.80;;;;;;;;;;5027929;28;20028;-80
2023/01/23 02:46:25;;;;;;;22.45;9.95;;;;;;;;;;5034789;28;20039;-81
2023/01/23 02:48:50;;;;;;;18.30;9.23;;;;;;;;;;5044504;28;20036;-81
2023/01/23 02:51:19;;;;;;;19.55;8.73;;;;;;;;;;5042181;28;20658;-81
2023/01/23 02:53:45;;;;;;;24.27;9.38;;;;;;;;;;5019313;28;20029;-81
2023/01/23 02:56:10;;;;;;;21.65;9.77;;;;;;;;;;5027600;28;20032;-81
2023/01/23 03:01:20;;;;;;;16.80;8.60;;;;;;;;;;5051038;28;20043;-82
2023/01/23 03:03:46;;;;;;;22.45;10.98;;;;;;;;;;5018284;28;20062;-81
2023/01/23 03:06:11;;;;;;;21.15;9.52;;;;;;;;;;5017527;28;20511;-81
2023/01/23 03:08:46;;;;;;;21.77;10.13;;;;;;;;;;5032721;28;20047;-80
2023/01/23 03:11:11;;;;;;;20.17;9.82;;;;;;;;;;5033811;28;20399;-80
2023/01/23 03:13:37;;;;;;;19.83;9.50;;;;;;;;;;5043930;28;20044;-80
2023/01/23 03:16:02;;;;;;;19.98;9.30;;;;;;;;;;5026941;28;20465;-80
2023/01/23 03:18:29;;;;;;;19.60;9.88;;;;;;;;;;5034149;28;20046;-81
2023/01/23 03:20:55;;;;;;;19.40;10.07;;;;;;;;;;5026826;28;20040;-81
2023/01/23 03:23:20;;;;;;;21.45;10.02;;;;;;;;;;5041250;28;20845;-88
2023/01/23 03:25:47;;;;;;;19.48;9.85;;;;;;;;;;5018753;28;20587;-86
2023/01/23 03:30:57;;;;;;;21.73;10.40;;;;;;;;;;5044134;28;20083;-86
2023/01/23 03:33:22;;;;;;;23.25;10.57;;;;;;;;;;5016492;28;20048;-89
2023/01/23 03:35:48;;;;;;;21.40;10.05;;;;;;;;;;5050392;28;20119;-88
2023/01/23 03:38:16;;;;;;;25.20;10.93;;;;;;;;;;5018591;28;20032;-89
2023/01/23 03:43:30;;;;;;;20.92;10.25;;;;;;;;;;5036601;28;20074;-85
2023/01/23 03:45:56;;;;;;;24.45;11.13;;;;;;;;;;5020167;28;20098;-84
2023/01/23 03:48:21;;;;;;;20.58;10.02;;;;;;;;;;5043941;28;20547;-85
2023/01/23 03:50:47;;;;;;;25.13;10.98;;;;;;;;;;5042809;28;20036;-85
2023/01/23 03:53:13;;;;;;;23.60;10.88;;;;;;;;;;5014732;28;20678;-85
2023/01/23 03:55:38;;;;;;;20.20;10.43;;;;;;;;;;5032614;28;20043;-86
2023/01/23 03:58:03;;;;;;;24.65;11.38;;;;;;;;;;5035313;28;20037;-86
2023/01/23 04:00:29;;;;;;;20.45;10.63;;;;;;;;;;5038542;28;20044;-87
2023/01/23 04:02:54;;;;;;;23.77;11.45;;;;;;;;;;5016884;28;20052;-87
2023/01/23 04:05:19;;;;;;;22.35;10.38;;;;;;;;;;5022870;28;20420;-87
2023/01/23 04:07:45;;;;;;;22.08;10.93;;;;;;;;;;5051206;28;20041;-87
2023/01/23 04:10:10;;;;;;;24.75;10.98;;;;;;;;;;5032749;28;20488;-85
2023/01/23 04:12:36;;;;;;;23.35;11.32;;;;;;;;;;5027266;28;20028;-85
2023/01/23 04:15:01;;;;;;;21.23;10.40;;;;;;;;;;5017944;28;20115;-85
2023/01/23 04:17:26;;;;;;;24.45;11.32;;;;;;;;;;5014774;28;20029;-86
2023/01/23 04:19:52;;;;;;;23.92;11.15;;;;;;;;;;5026735;28;20439;-86
2023/01/23 04:22:17;;;;;;;24.17;10.80;;;;;;;;;;5016781;28;20115;-85
2023/01/23 04:24:42;;;;;;;24.10;10.65;;;;;;;;;;5022362;28;20515;-85
2023/01/23 04:27:08;;;;;;;23.30;11.00;;;;;;;;;;5039615;28;20068;-85
2023/01/23 04:29:33;;;;;;;23.67;10.90;;;;;;;;;;5019779;28;20044;-86
2023/01/23 04:31:58;;;;;;;25.00;11.25;;;;;;;;;;5023717;28;20056;-86
2023/01/23 04:34:24;;;;;;;24.85;11.48;;;;;;;;;;5032179;28;20100;-87
2023/01/23 04:36:49;;;;;;;23.13;11.43;;;;;;;;;;5007317;28;20285;-88
2023/01/23 04:39:15;;;;;;;24.25;11.18;;;;;;;;;;4997441;28;20048;-89
2023/01/23 04:41:40;;;;;;;22.65;11.02;;;;;;;;;;5006872;28;20758;-90
2023/01/23 04:44:20;;;;;;;24.52;10.93;;;;;;;;;;5005080;28;20753;-88
2023/01/23 04:46:48;;;;;;;22.52;10.48;;;;;;;;;;5023544;28;20613;-88
2023/01/23 04:49:14;;;;;;;20.60;10.32;;;;;;;;;;5007106;28;20052;-85
2023/01/23 04:51:39;;;;;;;23.80;10.95;;;;;;;;;;5022044;28;20387;-85
2023/01/23 04:54:05;;;;;;;20.48;10.60;;;;;;;;;;5028055;28;20099;-91
2023/01/23 04:56:30;;;;;;;23.25;10.93;;;;;;;;;;5021588;28;20033;-87
2023/01/23 04:58:55;;;;;;;23.33;11.48;;;;;;;;;;5015730;28;20473;-85
2023/01/23 05:01:22;;;;;;;23.10;9.93;;;;;;;;;;5015480;28;20045;-84
2023/01/23 05:03:51;;;;;;;23.70;11.30;;;;;;;;;;5028416;28;20936;-85
2023/01/23 05:06:17;;;;;;;22.55;11.38;;;;;;;;;;5004082;28;20041;-85
2023/01/23 05:08:43;;;;;;;24.80;10.60;;;;;;;;;;5010575;28;20033;-85
2023/01/23 05:11:08;;;;;;;21.88;11.15;;;;;;;;;;5015701;28;20063;-86
2023/01/23 05:13:33;;;;;;;22.23;10.95;;;;;;;;;;5006143;28;20029;-85
2023/01/23 05:15:59;;;;;;;22.08;10.77;;;;;;;;;;5005331;28;20033;-84
2023/01/23 05:18:24;;;;;;;22.92;11.02;;;;;;;;;;5009775;28;20500;-85
2023/01/23 05:20:50;;;;;;;21.35;10.73;;;;;;;;;;5025356;28;20068;-85
2023/01/23 05:23:15;;;;;;;20.40;10.82;;;;;;;;;;5026783;28;20425;-86
2023/01/23 05:25:41;;;;;;;21.75;9.90;;;;;;;;;;5003270;28;20033;-85
2023/01/23 05:28:06;;;;;;;23.92;11.70;;;;;;;;;;5015106;28;20034;-84
2023/01/23 05:30:32;;;;;;;23.48;10.60;;;;;;;;;;5018918;28;20041;-85
2023/01/23 05:32:57;;;;;;;21.48;10.80;;;;;;;;;;5014917;28;20033;-85
2023/01/23 05:35:22;;;;;;;21.75;11.13;;;;;;;;;;5045971;28;20043;-85
2023/01/23 05:37:51;;;;;;;25.27;10.93;;;;;;;;;;5045803;28;20040;-83
2023/01/23 05:40:18;;;;;;;23.88;11.40;;;;;;;;;;5051591;28;20703;-84
2023/01/23 05:42:44;;;;;;;22.10;10.30;;;;;;;;;;5019198;28;20029;-84
2023/01/23 05:45:10;;;;;;;23.85;11.02;;;;;;;;;;5045822;28;20507;-84
2023/01/23 05:47:36;;;;;;;24.40;11.15;;;;;;;;;;5035362;28;20032;-85
2023/01/23 05:50:02;;;;;;;23.40;10.98;;;;;;;;;;5054392;28;20472;-83
2023/01/23 05:52:30;;;;;;;23.90;10.63;;;;;;;;;;5022300;28;20808;-84
2023/01/23 05:54:56;;;;;;;24.70;11.55;;;;;;;;;;5031643;28;20061;-85
2023/01/23 05:57:21;;;;;;;22.15;10.85;;;;;;;;;;5054736;28;20152;-86
2023/01/23 05:59:46;;;;;;;26.08;11.90;;;;;;;;;;5038100;28;20029;-83
2023/01/23 06:02:12;;;;;;;23.65;10.52;;;;;;;;;;5035991;28;20048;-85
2023/01/23 06:04:38;;;;;;;25.58;11.18;;;;;;;;;;5020325;28;20411;-85
2023/01/23 06:07:03;;;;;;;25.63;11.38;;;;;;;;;;5046817;28;20040;-85
2023/01/23 06:09:29;;;;;;;23.65;11.02;;;;;;;;;;5016485;28;20442;-86
2023/01/23 06:11:54;;;;;;;24.05;11.20;;;;;;;;;;5036117;28;20067;-84
2023/01/23 06:14:19;;;;;;;24.48;11.93;;;;;;;;;;5024984;28;20033;-83
2023/01/23 06:16:45;;;;;;;22.38;10.57;;;;;;;;;;5058549;28;20033;-85
2023/01/23 06:19:11;;;;;;;24.98;12.27;;;;;;;;;;5052549;28;20033;-85
2023/01/23 06:21:36;;;;;;;23.83;11.93;;;;;;;;;;5024602;28;20493;-85
2023/01/23 06:24:02;;;;;;;24.98;10.65;;;;;;;;;;5029505;28;20076;-83
2023/01/23 06:26:27;;;;;;;21.98;10.85;;;;;;;;;;5044991;28;20036;-82
2023/01/23 06:28:53;;;;;;;26.77;12.05;;;;;;;;;;5035250;28;20076;-80
2023/01/23 06:31:18;;;;;;;24.58;11.73;;;;;;;;;;5036524;28;20028;-80
2023/01/23 06:33:49;;;;;;;27.15;11.40;;;;;;;;;;5031135;28;20526;-80
2023/01/23 06:36:15;;;;;;;26.48;12.15;;;;;;;;;;5051013;28;20048;-79
2023/01/23 06:38:40;;;;;;;24.83;11.45;;;;;;;;;;5038338;28;20029;-80
2023/01/23 06:41:07;;;;;;;22.02;11.07;;;;;;;;;;5033774;28;20044;-79
2023/01/23 06:43:32;;;;;;;25.48;11.27;;;;;;;;;;5025579;28;20037;-82
2023/01/23 06:45:58;;;;;;;22.40;10.43;;;;;;;;;;5042763;28;20040;-82
2023/01/23 06:48:23;;;;;;;23.52;10.95;;;;;;;;;;5028377;28;20123;-82
2023/01/23 06:50:49;;;;;;;23.92;11.32;;;;;;;;;;5051480;28;20052;-81
2023/01/23 06:53:15;;;;;;;25.33;10.90;;;;;;;;;;5041550;28;20107;-82
2023/01/23 06:55:41;;;;;;;26.67;11.43;;;;;;;;;;5022041;28;20548;-82
2023/01/23 06:58:07;;;;;;;22.83;10.70;;;;;;;;;;5017432;28;20135;-90
2023/01/23 07:00:35;;;;;;;23.35;10.98;;;;;;;;;;5043692;28;20044;-88
2023/01/23 07:03:03;;;;;;;34.20;16.23;;;;;;;;;;5030906;28;20140;-90
2023/01/23 07:05:29;;;;;;;25.10;11.93;;;;;;;;;;5047664;28;20494;-92
2023/01/23 07:07:55;;;;;;;28.83;12.32;;;;;;;;;;5049547;28;20037;-93
2023/01/23 07:10:21;;;;;;;25.63;10.82;;;;;;;;;;5018047;28;20481;-94
2023/01/23 07:12:47;;;;;;;20.08;10.45;;;;;;;;;;5042622;28;20040;-90
2023/01/23 07:15:13;;;;;;;21.85;10.80;;;;;;;;;;5020880;28;20393;-89
2023/01/23 07:17:38;;;;;;;25.73;11.90;;;;;;;;;;5017077;28;20421;-86
2023/01/23 07:20:04;;;;;;;26.27;11.43;;;;;;;;;;5044172;28;20140;-88
2023/01/23 07:22:29;;;;;;;24.05;11.27;;;;;;;;;;5026722;28;20082;-87
2023/01/23 07:24:54;;;;;;;23.70;11.52;;;;;;;;;;5043345;28;20124;-86
2023/01/23 07:27:20;;;;;;;20.90;10.65;;;;;;;;;;5018132;28;20041;-87
2023/01/23 07:29:45;;;;;;;20.25;10.60;;;;;;;;;;5018691;28;20039;-87
2023/01/23 07:32:11;;;;;;;24.70;11.50;;;;;;;;;;5025794;28;20029;-84
2023/01/23 07:34:37;;;;;;;22.83;10.80;;;;;;;;;;5023627;28;20436;-87
2023/01/23 07:37:02;;;;;;;22.77;11.25;;;;;;;;;;5027552;28;20106;-86
2023/01/23 07:39:28;;;;;;;22.40;11.95;;;;;;;;;;5026462;28;20040;-86
2023/01/23 07:41:53;;;;;;;25.05;12.23;;;;;;;;;;5031831;28;20382;-90
2023/01/23 07:44:20;;;;;;;24.83;11.93;;;;;;;;;;5025626;28;20039;-89
2023/01/23 07:46:47;;;;;;;26.20;11.57;;;;;;;;;;5025158;28;20037;-88
2023/01/23 07:49:12;;;;;;;23.95;10.68;;;;;;;;;;5036902;28;20396;-86
2023/01/23 07:51:38;;;;;;;25.92;10.98;;;;;;;;;;5033520;28;20152;-88
2023/01/23 07:54:06;;;;;;;22.58;10.45;;;;;;;;;;5024761;28;20515;-87
2023/01/23 07:56:35;;;;;;;24.55;10.85;;;;;;;;;;5019634;28;20045;-85
2023/01/23 07:59:00;;;;;;;20.42;10.32;;;;;;;;;;5013971;28;20418;-87
2023/01/23 08:01:26;;;;;;;20.88;11.30;;;;;;;;;;5022362;28;20160;-85
2023/01/23 08:03:51;;;;;;;22.70;10.85;;;;;;;;;;5035558;28;20673;-86
2023/01/23 08:06:17;;;;;;;24.77;11.63;;;;;;;;;;5031373;28;20041;-89
2023/01/23 08:08:42;;;;;;;22.00;10.20;;;;;;;;;;5044072;28;20037;-90
2023/01/23 08:11:11;;;;;;;21.58;10.77;;;;;;;;;;5048388;28;20423;-86
2023/01/23 08:13:37;;;;;;;24.02;10.82;;;;;;;;;;5043311;28;20036;-87
2023/01/23 08:16:03;;;;;;;21.80;11.25;;;;;;;;;;5033988;28;20052;-87
2023/01/23 08:18:29;;;;;;;23.45;11.05;;;;;;;;;;5051546;28;20031;-89
2023/01/23 08:20:55;;;;;;;35.42;16.00;;;;;;;;;;5043994;28;20036;-87
2023/01/23 08:23:29;;;;;;;23.45;11.82;;;;;;;;;;5048132;28;20052;-90
2023/01/23 08:25:56;;;;;;;23.02;11.45;;;;;;;;;;5038557;28;20079;-87
2023/01/23 08:28:22;;;;;;;20.47;10.33;;;;;;;;;;5055832;28;20044;-90
2023/01/23 08:30:47;;;;;;;20.67;10.70;;;;;;;;;;5020998;28;20352;-90
2023/01/23 08:33:12;;;;;;;22.50;11.02;;;;;;;;;;5021388;28;20395;-88
2023/01/23 08:35:38;;;;;;;22.20;10.60;;;;;;;;;;5043306;28;20072;-90
2023/01/23 08:38:04;;;;;;;23.08;10.95;;;;;;;;;;5035235;28;20098;-89
2023/01/23 08:40:29;;;;;;;22.17;11.30;;;;;;;;;;5033614;28;20048;-89
2023/01/23 08:42:55;;;;;;;23.40;11.35;;;;;;;;;;5053525;28;20758;-88
2023/01/23 08:45:21;;;;;;;24.42;11.70;;;;;;;;;;5036846;28;20096;-87
2023/01/23 08:47:47;;;;;;;22.88;11.30;;;;;;;;;;5052818;28;20643;-89
2023/01/23 08:50:12;;;;;;;26.50;12.82;;;;;;;;;;5018904;28;20124;-87
2023/01/23 08:52:37;;;;;;;25.90;12.38;;;;;;;;;;5020230;28;20484;-89
2023/01/23 08:55:03;;;;;;;24.25;10.95;;;;;;;;;;5030187;28;20044;-88
2023/01/23 08:57:28;;;;;;;20.95;11.50;;;;;;;;;;5036209;28;20033;-88
2023/01/23 08:59:54;;;;;;;26.35;12.40;;;;;;;;;;5022474;28;20681;-88
2023/01/23 09:02:20;;;;;;;24.17;12.23;;;;;;;;;;5016407;28;20029;-90
2023/01/23 09:04:46;;;;;;;24.93;11.43;;;;;;;;;;5046696;28;20412;-86
2023/01/23 09:07:11;;;;;;;21.15;10.77;;;;;;;;;;5046234;28;20050;-88
2023/01/23 09:09:37;;;;;;;25.70;12.45;;;;;;;;;;5018823;28;20102;-87
2023/01/23 09:12:05;;;;;;;42.65;19.30;;;;;;;;;;5021726;28;20028;-86
2023/01/23 09:14:30;;;;;;;48.00;20.20;;;;;;;;;;5022822;28;20043;-89
2023/01/23 09:16:58;;;;;;;24.65;11.30;;;;;;;;;;5043979;28;20029;-86
2023/01/23 09:19:23;;;;;;;;;;;;;;;;;;5028455;28;20052;-86
2023/01/23 09:21:52;;;;;;;23.03;10.90;;;;;;;;;;5052320;28;19917;-87
2023/01/23 09:24:17;;;;;;;21.60;11.02;;;;;;;;;;5039151;28;20276;-88
2023/01/23 09:26:42;;;;;;;23.90;11.15;;;;;;;;;;5024841;28;20039;-86
2023/01/23 09:29:08;;;;;;;24.40;11.23;;;;;;;;;;5036474;28;20033;-87
2023/01/23 09:31:33;;;;;;;26.85;12.35;;;;;;;;;;5023406;28;20041;-86
2023/01/23 09:33:59;;;;;;;22.60;11.25;;;;;;;;;;5020360;28;20051;-90
2023/01/23 09:36:24;;;;;;;26.98;12.80;;;;;;;;;;5031717;28;20044;-90
2023/01/23 09:38:50;;;;;;;23.15;11.68;;;;;;;;;;5030637;28;20032;-89
2023/01/23 09:41:21;;;;;;;21.80;11.27;;;;;;;;;;5053966;28;20021;-88
2023/01/23 09:43:54;;;;;;;22.15;11.68;;;;;;;;;;5031755;28;20568;-89
2023/01/23 09:46:31;;;;;;;24.67;12.05;;;;;;;;;;5045220;28;20396;-88
2023/01/23 09:49:23;;;;;;;24.00;12.20;;;;;;;;;;5041053;28;20029;-86
2023/01/23 09:52:17;;;;;;;18.55;10.07;;;;;;;;;;4986451;28;20033;-88
2023/01/23 09:54:52;;;;;;;23.98;11.25;;;;;;;;;;4999418;28;20526;-87
2023/01/23 09:57:24;;;;;;;27.77;13.70;;;;;;;;;;4982129;28;20038;-88
2023/01/23 09:59:53;;;;;;;21.95;10.70;;;;;;;;;;4988228;28;20125;-88
2023/01/23 10:02:21;;;;;;;27.85;11.95;;;;;;;;;;5001650;28;20072;-88
2023/01/23 10:04:51;;;;;;;22.20;10.55;;;;;;;;;;4983569;28;20621;-85
2023/01/23 10:07:19;;;;;;;23.85;12.32;;;;;;;;;;5005012;28;20557;-91
2023/01/23 10:09:50;;;;;;;21.73;11.57;;;;;;;;;;4980871;28;20101;-90
2023/01/23 10:12:31;;;;;;;23.42;11.70;;;;;;;;;;4982181;28;20532;-86
2023/01/23 10:15:08;;;;;;;21.27;11.05;;;;;;;;;;4985841;28;20050;-86
2023/01/23 10:17:59;;;;;;;23.40;11.45;;;;;;;;;;5022588;28;20486;-88
2023/01/23 10:20:41;;;;;;;23.45;11.45;;;;;;;;;;5022584;28;20038;-89
2023/01/23 10:23:44;;;;;;;24.92;12.32;;;;;;;;;;4984900;28;20048;-87
2023/01/23 10:26:25;;;;;;;25.35;11.68;;;;;;;;;;5005799;28;20069;-87
2023/01/23 10:28:53;;;;;;;23.98;10.70;;;;;;;;;;5019853;28;20060;-87
2023/01/23 10:31:37;;;;;;;23.67;11.85;;;;;;;;;;5037404;28;20089;-90
2023/01/23 10:34:17;;;;;;;21.40;11.07;;;;;;;;;;5044735;28;20037;-89
2023/01/23 10:36:56;;;;;;;27.75;13.63;;;;;;;;;;5017386;28;20097;-90
2023/01/23 10:39:26;;;;;;;20.10;11.15;;;;;;;;;;5025732;28;20128;-87
2023/01/23 10:41:51;;;;;;;23.77;11.07;;;;;;;;;;5005447;28;20047;-90
2023/01/23 10:44:19;;;;;;;21.85;10.02;;;;;;;;;;5019081;28;20151;-87
2023/01/23 10:46:46;;;;;;;;;;;;;;;;;;5027955;28;20646;-88
2023/01/23 10:49:23;;;;;;;;;;;;;;;;;;5011289;28;19920;-86
2023/01/23 10:51:49;;;;;;;21.77;10.43;;;;;;;;;;5040766;28;19940;-89
2023/01/23 10:54:21;;;;;;;19.63;10.75;;;;;;;;;;5027303;28;20057;-88
2023/01/23 10:56:54;;;;;;;19.88;10.50;;;;;;;;;;5026145;28;20034;-86
2023/01/23 10:59:33;;;;;;;20.52;10.65;;;;;;;;;;5035960;28;20036;-88
2023/01/23 11:02:00;;;;;;;22.42;11.45;;;;;;;;;;5012957;28;20067;-91
2023/01/23 11:04:28;;;;;;;22.77;11.35;;;;;;;;;;5032555;28;20463;-85
2023/01/23 11:07:11;;;;;;;21.13;11.23;;;;;;;;;;5023519;28;20386;-84
2023/01/23 11:10:00;;;;;;;18.33;9.95;;;;;;;;;;5017279;28;20047;-89
2023/01/23 11:12:30;;;;;;;19.60;10.88;;;;;;;;;;5038070;28;20124;-91
2023/01/23 11:15:22;;;;;;;21.63;10.60;;;;;;;;;;5009648;28;20037;-89
2023/01/23 11:17:48;;;;;;;20.83;10.27;;;;;;;;;;5024939;28;20048;-90
2023/01/23 11:20:32;;;;;;;21.50;11.40;;;;;;;;;;5000896;28;20060;-91
2023/01/23 11:23:01;;;;;;;23.27;11.45;;;;;;;;;;5029130;28;20561;-89
2023/01/23 11:25:30;;;;;;;23.13;11.90;;;;;;;;;;5036486;28;20041;-89
2023/01/23 11:27:59;;;;;;;22.40;11.13;;;;;;;;;;5011961;28;20087;-88
2023/01/23 11:30:51;;;;;;;23.58;11.82;;;;;;;;;;5000821;28;20056;-90
2023/01/23 11:33:25;;;;;;;20.48;11.02;;;;;;;;;;4997688;28;20036;-88
2023/01/23 11:36:12;;;;;;;25.10;12.35;;;;;;;;;;5019865;28;20096;-92
2023/01/23 11:38:44;;;;;;;23.25;11.13;;;;;;;;;;5011292;28;20049;-92
2023/01/23 11:41:11;;;;;;;25.13;13.00;;;;;;;;;;4999223;28;20041;-89
2023/01/23 11:43:40;;;;;;;23.48;12.25;;;;;;;;;;4999940;28;20041;-90
2023/01/23 11:46:06;;;;;;;22.40;12.57;;;;;;;;;;5017175;28;20041;-90
2023/01/23 11:48:59;;;;;;;25.77;13.40;;;;;;;;;;5019784;28;20067;-91
2023/01/23 11:51:48;;;;;;;25.42;12.77;;;;;;;;;;4989982;28;21474;-93
2023/01/23 11:54:35;;;;;;;23.80;12.55;;;;;;;;;;5030828;28;20557;-89
2023/01/23 11:57:20;;;;;;;24.63;12.27;;;;;;;;;;5023969;28;20033;-92
2023/01/23 12:00:16;;;;;;;23.27;11.90;;;;;;;;;;5019000;28;20133;-92
2023/01/23 12:03:00;;;;;;;22.60;11.45;;;;;;;;;;5010959;28;20124;-87
2023/01/23 12:05:47;;;;;;;23.17;11.98;;;;;;;;;;5008281;28;20033;-92
2023/01/23 12:08:21;;;;;;;26.48;12.30;;;;;;;;;;5001790;28;20029;-87
2023/01/23 12:11:12;;;;;;;23.35;11.45;;;;;;;;;;5034090;28;20158;-91
2023/01/23 12:13:57;;;;;;;23.98;12.05;;;;;;;;;;5025294;28;20028;-90
2023/01/23 12:16:59;;;;;;;23.02;11.63;;;;;;;;;;5033047;28;20726;-89
2023/01/23 12:19:31;;;;;;;19.92;11.30;;;;;;;;;;5026359;28;20051;-90
2023/01/23 12:22:10;;;;;;;24.95;12.00;;;;;;;;;;5032685;28;20067;-90
2023/01/23 12:25:10;;;;;;;25.33;12.15;;;;;;;;;;5027271;28;20041;-90
2023/01/23 12:27:36;;;;;;;20.08;10.82;;;;;;;;;;5030237;28;20520;-89
2023/01/23 12:30:29;;;;;;;20.83;10.85;;;;;;;;;;5018504;28;20075;-89
2023/01/23 12:33:16;;;;;;;22.95;11.40;;;;;;;;;;5017260;28;20048;-90
2023/01/23 12:36:16;;;;;;;24.35;11.80;;;;;;;;;;5060025;28;20037;-88
2023/01/23 12:39:20;;;;;;;21.48;12.07;;;;;;;;;;5036993;28;20492;-89
2023/01/23 12:41:49;;;;;;;21.48;11.13;;;;;;;;;;5038131;28;20550;-90
2023/01/23 12:44:19;;;;;;;23.60;12.05;;;;;;;;;;5032699;28;20670;-90
2023/01/23 12:47:03;;;;;;;21.95;11.27;;;;;;;;;;5051381;28;20120;-89
2023/01/23 12:49:41;;;;;;;30.75;11.57;;;;;;;;;;5015941;28;20452;-89
2023/01/23 12:52:23;;;;;;;23.42;10.85;;;;;;;;;;5047042;28;20065;-90
2023/01/23 12:54:55;;;;;;;23.27;11.73;;;;;;;;;;5060131;28;20036;-90
2023/01/23 12:57:39;;;;;;;18.60;10.30;;;;;;;;;;5031811;28;20033;-91
2023/01/23 13:00:26;;;;;;;21.17;10.48;;;;;;;;;;5039888;28;20033;-90
2023/01/23 13:03:13;;;;;;;20.77;9.73;;;;;;;;;;5030041;28;20160;-90
2023/01/23 13:05:59;;;;;;;15.93;9.18;;;;;;;;;;5028702;28;20039;-87
2023/01/23 13:09:09;;;;;;;18.30;8.60;;;;;;;;;;5038145;28;20041;-88
2023/01/23 13:12:03;;;;;;;17.73;9.07;;;;;;;;;;5049138;28;20033;-88
2023/01/23 13:14:31;;;;;;;16.75;8.88;;;;;;;;;;5034005;28;20116;-89
2023/01/23 13:17:01;;;;;;;22.30;10.65;;;;;;;;;;5034977;28;20036;-91
2023/01/23 13:22:20;;;;;;;;;;;;;;;;;;5035191;28;20047;-91
2023/01/23 13:25:12;;;;;;;14.63;7.55;;;;;;;;;;5053539;28;19939;-90
2023/01/23 13:27:40;;;;;;;15.30;8.18;;;;;;;;;;5020967;28;20041;-91
2023/01/23 13:30:21;;;;;;;16.67;8.50;;;;;;;;;;5029255;28;20036;-87
2023/01/23 13:32:51;;;;;;;16.00;8.23;;;;;;;;;;5033364;28;20507;-89
2023/01/23 13:35:38;;;;;;;14.98;8.02;;;;;;;;;;5015783;28;20096;-88
2023/01/23 13:38:31;;;;;;;;;;;;;;;;;;5032772;28;20068;-87
2023/01/23 13:41:10;;;;;;;17.50;8.18;;;;;;;;;;5003272;28;20048;-89
2023/01/23 13:43:56;;;;;;;14.68;7.35;;;;;;;;;;5032079;28;20033;-90
2023/01/23 13:46:25;;;;;;;16.27;8.40;;;;;;;;;;5030957;28;20052;-90
2023/01/23 13:51:42;;;;;;;15.18;7.63;;;;;;;;;;5014059;28;20048;-89
2023/01/23 13:57:02;;;;;;;14.90;7.47;;;;;;;;;;5020146;28;20056;-88
2023/01/23 13:59:38;;;;;;;13.20;6.97;;;;;;;;;;5016416;28;20033;-88
2023/01/23 14:05:18;;;;;;;19.70;9.10;;;;;;;;;;5022744;28;20043;-90
2023/01/23 14:07:46;;;;;;;19.85;9.60;;;;;;;;;;4980453;28;20440;-92
2023/01/23 14:10:28;;;;;;;15.68;7.63;;;;;;;;;;5013308;28;20033;-89
2023/01/23 14:13:02;;;;;;;13.50;6.63;;;;;;;;;;4988188;28;20931;-88
2023/01/23 14:18:50;;;;;;;13.65;7.13;;;;;;;;;;5008552;28;20068;-91
2023/01/23 14:21:44;;;;;;;;;;;;;;;;;;;;;
2023/01/23 14:24:32;;;;;;;13.48;7.28;;;;;;;;;;4990621;28;21618;-87
2023/01/23 14:26:59;;;;;;;;;;;;;;;;;;5006581;28;20130;-92
2023/01/23 14:29:36;;;;;;;;;;;;;;;;;;;;;
2023/01/23 14:32:04;;;;;;;14.35;7.53;;;;;;;;;;4992108;28;20690;-89
2023/01/23 14:34:40;;;;;;;12.15;6.15;;;;;;;;;;5019238;28;20484;-89
2023/01/23 14:37:12;;;;;;;14.10;7.15;;;;;;;;;;5023854;28;20043;-87
2023/01/23 14:39:37;;;;;;;12.38;7.28;;;;;;;;;;5018404;28;20056;-89
2023/01/23 14:42:04;;;;;;;14.80;7.07;;;;;;;;;;5022419;28;20111;-88
2023/01/23 14:44:39;;;;;;;15.00;7.55;;;;;;;;;;5017651;28;20033;-90
2023/01/23 14:47:25;;;;;;;12.90;7.07;;;;;;;;;;5032234;28;20118;-89
2023/01/23 14:49:51;;;;;;;12.35;7.55;;;;;;;;;;4996456;28;20034;-90
2023/01/23 14:52:28;;;;;;;13.27;7.05;;;;;;;;;;5023686;28;20408;-90
2023/01/23 14:57:43;;;;;;;14.57;7.10;;;;;;;;;;4998261;28;20477;-90
2023/01/23 15:00:17;;;;;;;13.82;7.20;;;;;;;;;;5019348;28;20079;-91
2023/01/23 15:02:45;;;;;;;16.58;7.60;;;;;;;;;;5020206;28;20028;-92
2023/01/23 15:05:11;;;;;;;14.55;6.85;;;;;;;;;;5025747;28;20385;-88
2023/01/23 15:08:19;;;;;;;32.85;15.05;;;;;;;;;;5026175;28;20040;-88
2023/01/23 15:10:49;;;;;;;18.83;8.55;;;;;;;;;;5007157;28;20047;-89